sensor_id;sensor_type;location;lat;lon;timestamp;temperature;humidity
981;DHT22;479;53.514;9.994;2024-03-08T00:00:33;2.90;99.90
981;DHT22;479;53.514;9.994;2024-03-08T00:03:00;2.90;99.90
981;DHT22;479;53.514;9.994;2024-03-08T00:05:29;2.90;99.90
981;DHT22;479;53.514;9.994;2024-03-08T00:07:56;2.80;99.90
981;DHT22;479;53.514;9.994;2024-03-08T00:10:24;2.80;99.90
981;DHT22;479;53.514;9.994;2024-03-08T00:12:51;2.80;99.90
981;DHT22;479;53.514;9.994;2024-03-08T00:15:19;2.80;99.90
981;DHT22;479;53.514;9.994;2024-03-08T00:17:46;2.70;99.90
981;DHT22;479;53.514;9.994;2024-03-08T00:20:13;2.70;99.90
981;DHT22;479;53.514;9.994;2024-03-08T00:22:41;2.60;99.90
981;DHT22;479;53.514;9.994;2024-03-08T00:25:09;2.60;99.90
981;DHT22;479;53.514;9.994;2024-03-08T00:27:37;2.60;99.90
981;DHT22;479;53.514;9.994;2024-03-08T00:30:05;2.60;99.90
981;DHT22;479;53.514;9.994;2024-03-08T00:32:32;2.60;99.90
981;DHT22;479;53.514;9.994;2024-03-08T00:34:59;2.60;99.90
981;DHT22;479;53.514;9.994;2024-03-08T00:37:27;2.60;99.90
981;DHT22;479;53.514;9.994;2024-03-08T00:39:55;2.50;99.90
981;DHT22;479;53.514;9.994;2024-03-08T00:42:22;2.50;99.90
981;DHT22;479;53.514;9.994;2024-03-08T00:44:49;2.50;99.90
981;DHT22;479;53.514;9.994;2024-03-08T00:47:16;2.50;99.90
981;DHT22;479;53.514;9.994;2024-03-08T00:49:44;2.50;99.90
981;DHT22;479;53.514;9.994;2024-03-08T00:52:13;2.40;99.90
981;DHT22;479;53.514;9.994;2024-03-08T00:54:40;2.50;99.90
981;DHT22;479;53.514;9.994;2024-03-08T00:57:10;2.40;99.90
981;DHT22;479;53.514;9.994;2024-03-08T00:59:38;2.40;99.90
981;DHT22;479;53.514;9.994;2024-03-08T01:02:04;2.40;99.90
981;DHT22;479;53.514;9.994;2024-03-08T01:04:31;2.30;99.90
981;DHT22;479;53.514;9.994;2024-03-08T01:06:59;2.30;99.90
981;DHT22;479;53.514;9.994;2024-03-08T01:09:26;2.30;99.90
981;DHT22;479;53.514;9.994;2024-03-08T01:11:54;2.30;99.90
981;DHT22;479;53.514;9.994;2024-03-08T01:14:23;2.30;99.90
981;DHT22;479;53.514;9.994;2024-03-08T01:16:51;2.30;99.90
981;DHT22;479;53.514;9.994;2024-03-08T01:19:18;2.30;99.90
981;DHT22;479;53.514;9.994;2024-03-08T01:21:45;2.30;99.90
981;DHT22;479;53.514;9.994;2024-03-08T01:24:12;2.20;99.90
981;DHT22;479;53.514;9.994;2024-03-08T01:26:39;2.20;99.90
981;DHT22;479;53.514;9.994;2024-03-08T01:29:06;2.20;99.90
981;DHT22;479;53.514;9.994;2024-03-08T01:31:35;2.20;99.90
981;DHT22;479;53.514;9.994;2024-03-08T01:34:02;2.20;99.90
981;DHT22;479;53.514;9.994;2024-03-08T01:36:29;2.20;99.90
981;DHT22;479;53.514;9.994;2024-03-08T01:38:56;2.10;99.90
981;DHT22;479;53.514;9.994;2024-03-08T01:41:23;2.10;99.90
981;DHT22;479;53.514;9.994;2024-03-08T01:43:50;2.10;99.90
981;DHT22;479;53.514;9.994;2024-03-08T01:46:19;2.10;99.90
981;DHT22;479;53.514;9.994;2024-03-08T01:48:50;2.10;99.90
981;DHT22;479;53.514;9.994;2024-03-08T01:51:18;2.10;99.90
981;DHT22;479;53.514;9.994;2024-03-08T01:53:46;2.00;99.90
981;DHT22;479;53.514;9.994;2024-03-08T01:56:14;2.00;99.90
981;DHT22;479;53.514;9.994;2024-03-08T01:58:41;2.00;99.90
981;DHT22;479;53.514;9.994;2024-03-08T02:01:11;1.90;99.90
981;DHT22;479;53.514;9.994;2024-03-08T02:03:39;2.00;99.90
981;DHT22;479;53.514;9.994;2024-03-08T02:06:07;1.90;99.90
981;DHT22;479;53.514;9.994;2024-03-08T02:08:36;1.90;99.90
981;DHT22;479;53.514;9.994;2024-03-08T02:11:04;1.90;99.90
981;DHT22;479;53.514;9.994;2024-03-08T02:13:30;1.90;99.90
981;DHT22;479;53.514;9.994;2024-03-08T02:15:58;1.90;99.90
981;DHT22;479;53.514;9.994;2024-03-08T02:18:26;1.90;99.90
981;DHT22;479;53.514;9.994;2024-03-08T02:20:55;1.90;99.90
981;DHT22;479;53.514;9.994;2024-03-08T02:23:23;1.80;99.90
981;DHT22;479;53.514;9.994;2024-03-08T02:25:52;1.80;99.90
981;DHT22;479;53.514;9.994;2024-03-08T02:28:19;1.80;99.90
981;DHT22;479;53.514;9.994;2024-03-08T02:30:47;1.80;99.90
981;DHT22;479;53.514;9.994;2024-03-08T02:33:14;1.80;99.90
981;DHT22;479;53.514;9.994;2024-03-08T02:35:43;1.80;99.90
981;DHT22;479;53.514;9.994;2024-03-08T02:38:13;1.70;99.90
981;DHT22;479;53.514;9.994;2024-03-08T02:40:41;1.70;99.90
981;DHT22;479;53.514;9.994;2024-03-08T02:43:08;1.70;99.90
981;DHT22;479;53.514;9.994;2024-03-08T02:45:35;1.70;99.90
981;DHT22;479;53.514;9.994;2024-03-08T02:48:03;1.70;99.90
981;DHT22;479;53.514;9.994;2024-03-08T02:50:32;1.60;99.90
981;DHT22;479;53.514;9.994;2024-03-08T02:52:59;1.60;99.90
981;DHT22;479;53.514;9.994;2024-03-08T02:55:27;1.60;99.90
981;DHT22;479;53.514;9.994;2024-03-08T02:57:55;1.60;99.90
981;DHT22;479;53.514;9.994;2024-03-08T03:00:26;1.60;99.90
981;DHT22;479;53.514;9.994;2024-03-08T03:02:55;1.60;99.90
981;DHT22;479;53.514;9.994;2024-03-08T03:05:25;1.60;99.90
981;DHT22;479;53.514;9.994;2024-03-08T03:07:53;1.60;99.90
981;DHT22;479;53.514;9.994;2024-03-08T03:10:20;1.60;99.90
981;DHT22;479;53.514;9.994;2024-03-08T03:12:49;1.60;99.90
981;DHT22;479;53.514;9.994;2024-03-08T03:15:17;1.60;99.90
981;DHT22;479;53.514;9.994;2024-03-08T03:17:49;1.50;99.90
981;DHT22;479;53.514;9.994;2024-03-08T03:20:23;1.60;99.90
981;DHT22;479;53.514;9.994;2024-03-08T03:22:52;1.50;99.90
981;DHT22;479;53.514;9.994;2024-03-08T03:25:19;1.50;99.90
981;DHT22;479;53.514;9.994;2024-03-08T03:27:53;1.50;99.90
981;DHT22;479;53.514;9.994;2024-03-08T03:30:22;1.50;99.90
981;DHT22;479;53.514;9.994;2024-03-08T03:32:52;1.50;99.90
981;DHT22;479;53.514;9.994;2024-03-08T03:35:22;1.40;99.90
981;DHT22;479;53.514;9.994;2024-03-08T03:37:50;1.40;99.90
981;DHT22;479;53.514;9.994;2024-03-08T03:40:27;1.40;99.90
981;DHT22;479;53.514;9.994;2024-03-08T03:43:01;1.40;99.90
981;DHT22;479;53.514;9.994;2024-03-08T03:45:28;1.40;99.90
981;DHT22;479;53.514;9.994;2024-03-08T03:47:58;1.40;99.90
981;DHT22;479;53.514;9.994;2024-03-08T03:50:27;1.40;99.90
981;DHT22;479;53.514;9.994;2024-03-08T03:52:54;1.30;99.90
981;DHT22;479;53.514;9.994;2024-03-08T03:55:21;1.30;99.90
981;DHT22;479;53.514;9.994;2024-03-08T03:57:48;1.30;99.90
981;DHT22;479;53.514;9.994;2024-03-08T04:00:17;1.30;99.90
981;DHT22;479;53.514;9.994;2024-03-08T04:02:44;1.30;99.90
981;DHT22;479;53.514;9.994;2024-03-08T04:05:12;1.30;99.90
981;DHT22;479;53.514;9.994;2024-03-08T04:07:39;1.30;99.90
981;DHT22;479;53.514;9.994;2024-03-08T04:10:07;1.30;99.90
981;DHT22;479;53.514;9.994;2024-03-08T04:12:35;1.20;99.90
981;DHT22;479;53.514;9.994;2024-03-08T04:15:04;1.20;99.90
981;DHT22;479;53.514;9.994;2024-03-08T04:17:34;1.20;99.90
981;DHT22;479;53.514;9.994;2024-03-08T04:20:03;1.20;99.90
981;DHT22;479;53.514;9.994;2024-03-08T04:22:36;1.20;99.90
981;DHT22;479;53.514;9.994;2024-03-08T04:25:05;1.20;99.90
981;DHT22;479;53.514;9.994;2024-03-08T04:27:33;1.10;99.90
981;DHT22;479;53.514;9.994;2024-03-08T04:30:00;1.20;99.90
981;DHT22;479;53.514;9.994;2024-03-08T04:32:27;1.20;99.90
981;DHT22;479;53.514;9.994;2024-03-08T04:35:14;1.10;99.90
981;DHT22;479;53.514;9.994;2024-03-08T04:38:18;1.10;99.90
981;DHT22;479;53.514;9.994;2024-03-08T04:41:08;1.10;99.90
981;DHT22;479;53.514;9.994;2024-03-08T04:44:08;1.20;99.90
981;DHT22;479;53.514;9.994;2024-03-08T04:47:13;1.10;99.90
981;DHT22;479;53.514;9.994;2024-03-08T04:49:43;1.10;99.90
981;DHT22;479;53.514;9.994;2024-03-08T04:52:11;1.10;99.90
981;DHT22;479;53.514;9.994;2024-03-08T04:54:38;1.10;99.90
981;DHT22;479;53.514;9.994;2024-03-08T04:57:05;1.10;99.90
981;DHT22;479;53.514;9.994;2024-03-08T04:59:37;1.10;99.90
981;DHT22;479;53.514;9.994;2024-03-08T05:02:18;1.10;99.90
981;DHT22;479;53.514;9.994;2024-03-08T05:04:51;1.10;99.90
981;DHT22;479;53.514;9.994;2024-03-08T05:07:19;1.00;99.90
981;DHT22;479;53.514;9.994;2024-03-08T05:09:46;1.10;99.90
981;DHT22;479;53.514;9.994;2024-03-08T05:12:17;1.10;99.90
981;DHT22;479;53.514;9.994;2024-03-08T05:14:44;1.00;99.90
981;DHT22;479;53.514;9.994;2024-03-08T05:17:12;1.00;99.90
981;DHT22;479;53.514;9.994;2024-03-08T05:19:39;1.00;99.90
981;DHT22;479;53.514;9.994;2024-03-08T05:22:06;1.00;99.90
981;DHT22;479;53.514;9.994;2024-03-08T05:24:34;1.00;99.90
981;DHT22;479;53.514;9.994;2024-03-08T05:27:01;1.00;99.90
981;DHT22;479;53.514;9.994;2024-03-08T05:29:28;1.00;99.90
981;DHT22;479;53.514;9.994;2024-03-08T05:31:56;0.90;99.90
981;DHT22;479;53.514;9.994;2024-03-08T05:34:23;0.90;99.90
981;DHT22;479;53.514;9.994;2024-03-08T05:36:50;0.90;99.90
981;DHT22;479;53.514;9.994;2024-03-08T05:39:18;0.90;99.90
981;DHT22;479;53.514;9.994;2024-03-08T05:41:47;0.90;99.90
981;DHT22;479;53.514;9.994;2024-03-08T05:44:16;0.90;99.90
981;DHT22;479;53.514;9.994;2024-03-08T05:46:45;0.90;99.90
981;DHT22;479;53.514;9.994;2024-03-08T05:49:13;0.90;99.90
981;DHT22;479;53.514;9.994;2024-03-08T05:51:40;0.90;99.90
981;DHT22;479;53.514;9.994;2024-03-08T05:54:08;0.90;99.90
981;DHT22;479;53.514;9.994;2024-03-08T05:56:38;0.90;99.90
981;DHT22;479;53.514;9.994;2024-03-08T05:59:08;0.90;99.90
981;DHT22;479;53.514;9.994;2024-03-08T06:01:35;0.90;99.90
981;DHT22;479;53.514;9.994;2024-03-08T06:04:04;0.90;99.90
981;DHT22;479;53.514;9.994;2024-03-08T06:06:31;0.90;99.90
981;DHT22;479;53.514;9.994;2024-03-08T06:08:58;0.90;99.90
981;DHT22;479;53.514;9.994;2024-03-08T06:11:27;0.90;99.90
981;DHT22;479;53.514;9.994;2024-03-08T06:13:54;0.90;99.90
981;DHT22;479;53.514;9.994;2024-03-08T06:16:26;0.90;99.90
981;DHT22;479;53.514;9.994;2024-03-08T06:18:55;0.90;99.90
981;DHT22;479;53.514;9.994;2024-03-08T06:21:23;1.00;99.90
981;DHT22;479;53.514;9.994;2024-03-08T06:23:52;1.00;99.90
981;DHT22;479;53.514;9.994;2024-03-08T06:26:20;1.00;99.90
981;DHT22;479;53.514;9.994;2024-03-08T06:28:47;1.10;99.90
981;DHT22;479;53.514;9.994;2024-03-08T06:31:14;1.10;99.90
981;DHT22;479;53.514;9.994;2024-03-08T06:33:42;1.10;99.90
981;DHT22;479;53.514;9.994;2024-03-08T06:36:09;1.20;99.90
981;DHT22;479;53.514;9.994;2024-03-08T06:38:37;1.60;99.90
981;DHT22;479;53.514;9.994;2024-03-08T06:41:08;1.70;99.90
981;DHT22;479;53.514;9.994;2024-03-08T06:43:41;1.60;99.90
981;DHT22;479;53.514;9.994;2024-03-08T06:46:08;1.70;99.90
981;DHT22;479;53.514;9.994;2024-03-08T06:48:35;1.70;99.90
981;DHT22;479;53.514;9.994;2024-03-08T06:51:05;2.00;99.90
981;DHT22;479;53.514;9.994;2024-03-08T06:53:32;2.00;99.90
981;DHT22;479;53.514;9.994;2024-03-08T06:56:00;2.10;99.90
981;DHT22;479;53.514;9.994;2024-03-08T06:58:27;2.10;99.90
981;DHT22;479;53.514;9.994;2024-03-08T07:00:54;2.10;99.90
981;DHT22;479;53.514;9.994;2024-03-08T07:03:24;2.20;99.90
981;DHT22;479;53.514;9.994;2024-03-08T07:05:52;2.20;99.90
981;DHT22;479;53.514;9.994;2024-03-08T07:08:20;2.30;99.90
981;DHT22;479;53.514;9.994;2024-03-08T07:10:48;2.50;99.90
981;DHT22;479;53.514;9.994;2024-03-08T07:13:15;2.60;99.90
981;DHT22;479;53.514;9.994;2024-03-08T07:15:43;2.70;99.90
981;DHT22;479;53.514;9.994;2024-03-08T07:18:11;3.60;99.90
981;DHT22;479;53.514;9.994;2024-03-08T07:20:41;4.30;99.90
981;DHT22;479;53.514;9.994;2024-03-08T07:23:09;4.40;99.90
981;DHT22;479;53.514;9.994;2024-03-08T07:25:37;5.10;99.90
981;DHT22;479;53.514;9.994;2024-03-08T07:28:05;5.90;99.90
981;DHT22;479;53.514;9.994;2024-03-08T07:30:33;6.40;99.90
981;DHT22;479;53.514;9.994;2024-03-08T07:33:17;6.70;99.90
981;DHT22;479;53.514;9.994;2024-03-08T07:35:47;6.80;99.90
981;DHT22;479;53.514;9.994;2024-03-08T07:38:16;6.80;99.90
981;DHT22;479;53.514;9.994;2024-03-08T07:40:44;7.50;99.90
981;DHT22;479;53.514;9.994;2024-03-08T07:43:11;7.80;99.90
981;DHT22;479;53.514;9.994;2024-03-08T07:45:38;8.40;99.90
981;DHT22;479;53.514;9.994;2024-03-08T07:48:06;8.60;99.90
981;DHT22;479;53.514;9.994;2024-03-08T07:50:36;9.10;99.90
981;DHT22;479;53.514;9.994;2024-03-08T07:53:03;10.20;99.90
981;DHT22;479;53.514;9.994;2024-03-08T07:55:32;10.60;99.90
981;DHT22;479;53.514;9.994;2024-03-08T07:58:00;10.70;99.90
981;DHT22;479;53.514;9.994;2024-03-08T08:00:28;11.40;99.90
981;DHT22;479;53.514;9.994;2024-03-08T08:02:57;11.50;99.90
981;DHT22;479;53.514;9.994;2024-03-08T08:05:24;12.10;99.90
981;DHT22;479;53.514;9.994;2024-03-08T08:07:51;12.30;99.90
981;DHT22;479;53.514;9.994;2024-03-08T08:10:19;12.80;99.90
981;DHT22;479;53.514;9.994;2024-03-08T08:12:48;12.60;99.90
981;DHT22;479;53.514;9.994;2024-03-08T08:15:16;12.70;99.90
981;DHT22;479;53.514;9.994;2024-03-08T08:17:43;13.20;99.90
981;DHT22;479;53.514;9.994;2024-03-08T08:20:11;13.00;99.90
981;DHT22;479;53.514;9.994;2024-03-08T08:22:38;12.80;99.90
981;DHT22;479;53.514;9.994;2024-03-08T08:25:06;13.30;99.90
981;DHT22;479;53.514;9.994;2024-03-08T08:27:33;13.80;99.90
981;DHT22;479;53.514;9.994;2024-03-08T08:30:02;13.50;99.90
981;DHT22;479;53.514;9.994;2024-03-08T08:32:35;13.60;99.90
981;DHT22;479;53.514;9.994;2024-03-08T08:35:03;12.30;99.90
981;DHT22;479;53.514;9.994;2024-03-08T08:37:30;12.40;99.90
981;DHT22;479;53.514;9.994;2024-03-08T08:39:58;13.00;99.90
981;DHT22;479;53.514;9.994;2024-03-08T08:42:31;13.70;99.90
981;DHT22;479;53.514;9.994;2024-03-08T08:44:58;14.70;99.90
981;DHT22;479;53.514;9.994;2024-03-08T08:47:25;15.00;99.90
981;DHT22;479;53.514;9.994;2024-03-08T08:49:53;15.10;99.90
981;DHT22;479;53.514;9.994;2024-03-08T08:52:20;15.80;99.90
981;DHT22;479;53.514;9.994;2024-03-08T08:54:47;14.80;99.90
981;DHT22;479;53.514;9.994;2024-03-08T08:57:15;14.70;99.90
981;DHT22;479;53.514;9.994;2024-03-08T08:59:43;15.30;99.90
981;DHT22;479;53.514;9.994;2024-03-08T09:02:11;14.90;99.90
981;DHT22;479;53.514;9.994;2024-03-08T09:04:38;14.20;99.90
981;DHT22;479;53.514;9.994;2024-03-08T09:07:07;14.80;99.90
981;DHT22;479;53.514;9.994;2024-03-08T09:09:34;15.30;99.90
981;DHT22;479;53.514;9.994;2024-03-08T09:12:01;16.00;99.90
981;DHT22;479;53.514;9.994;2024-03-08T09:14:28;16.30;99.90
981;DHT22;479;53.514;9.994;2024-03-08T09:16:55;16.10;99.90
981;DHT22;479;53.514;9.994;2024-03-08T09:19:22;15.70;99.90
981;DHT22;479;53.514;9.994;2024-03-08T09:21:51;16.80;99.90
981;DHT22;479;53.514;9.994;2024-03-08T09:24:20;16.00;99.90
981;DHT22;479;53.514;9.994;2024-03-08T09:26:47;14.80;90.60
981;DHT22;479;53.514;9.994;2024-03-08T09:29:14;14.00;84.30
981;DHT22;479;53.514;9.994;2024-03-08T09:31:41;13.70;81.50
981;DHT22;479;53.514;9.994;2024-03-08T09:34:08;13.00;76.70
981;DHT22;479;53.514;9.994;2024-03-08T09:36:35;14.30;81.80
981;DHT22;479;53.514;9.994;2024-03-08T09:39:04;14.50;77.40
981;DHT22;479;53.514;9.994;2024-03-08T09:41:34;15.00;74.70
981;DHT22;479;53.514;9.994;2024-03-08T09:44:01;14.40;70.70
981;DHT22;479;53.514;9.994;2024-03-08T09:46:29;13.20;66.00
981;DHT22;479;53.514;9.994;2024-03-08T09:48:56;14.00;69.10
981;DHT22;479;53.514;9.994;2024-03-08T09:51:33;14.30;66.40
981;DHT22;479;53.514;9.994;2024-03-08T09:54:02;13.70;60.40
981;DHT22;479;53.514;9.994;2024-03-08T09:56:32;13.60;60.30
981;DHT22;479;53.514;9.994;2024-03-08T09:59:01;13.60;59.60
981;DHT22;479;53.514;9.994;2024-03-08T10:01:58;13.80;59.40
981;DHT22;479;53.514;9.994;2024-03-08T10:04:26;13.60;57.30
981;DHT22;479;53.514;9.994;2024-03-08T10:06:58;13.10;56.70
981;DHT22;479;53.514;9.994;2024-03-08T10:09:25;12.40;56.40
981;DHT22;479;53.514;9.994;2024-03-08T10:11:55;13.00;57.80
981;DHT22;479;53.514;9.994;2024-03-08T10:14:25;13.40;57.30
981;DHT22;479;53.514;9.994;2024-03-08T10:16:53;12.90;56.30
981;DHT22;479;53.514;9.994;2024-03-08T10:19:23;13.60;58.10
981;DHT22;479;53.514;9.994;2024-03-08T10:21:52;13.30;56.70
981;DHT22;479;53.514;9.994;2024-03-08T10:24:22;13.80;58.20
981;DHT22;479;53.514;9.994;2024-03-08T10:26:52;13.30;57.00
981;DHT22;479;53.514;9.994;2024-03-08T10:31:50;12.20;56.10
981;DHT22;479;53.514;9.994;2024-03-08T10:34:17;12.40;58.60
981;DHT22;479;53.514;9.994;2024-03-08T10:36:45;12.40;58.80
981;DHT22;479;53.514;9.994;2024-03-08T10:39:21;12.40;59.10
981;DHT22;479;53.514;9.994;2024-03-08T10:41:53;13.10;58.20
981;DHT22;479;53.514;9.994;2024-03-08T10:44:32;12.90;56.20
981;DHT22;479;53.514;9.994;2024-03-08T10:47:10;12.80;54.50
981;DHT22;479;53.514;9.994;2024-03-08T10:49:50;12.30;55.10
981;DHT22;479;53.514;9.994;2024-03-08T10:52:18;12.00;56.90
981;DHT22;479;53.514;9.994;2024-03-08T10:54:47;11.80;57.60
981;DHT22;479;53.514;9.994;2024-03-08T10:57:18;12.00;57.50
981;DHT22;479;53.514;9.994;2024-03-08T10:59:47;11.90;57.60
981;DHT22;479;53.514;9.994;2024-03-08T11:02:18;11.70;56.90
981;DHT22;479;53.514;9.994;2024-03-08T11:04:46;10.90;58.90
981;DHT22;479;53.514;9.994;2024-03-08T11:07:18;11.10;63.20
981;DHT22;479;53.514;9.994;2024-03-08T11:09:52;11.20;61.80
981;DHT22;479;53.514;9.994;2024-03-08T11:12:20;11.40;61.10
981;DHT22;479;53.514;9.994;2024-03-08T11:14:48;11.00;59.10
981;DHT22;479;53.514;9.994;2024-03-08T11:17:26;10.10;59.20
981;DHT22;479;53.514;9.994;2024-03-08T11:19:55;10.20;63.30
981;DHT22;479;53.514;9.994;2024-03-08T11:22:29;10.10;63.40
981;DHT22;479;53.514;9.994;2024-03-08T11:25:01;10.20;68.10
981;DHT22;479;53.514;9.994;2024-03-08T11:27:29;10.00;65.10
981;DHT22;479;53.514;9.994;2024-03-08T11:30:02;9.70;65.10
981;DHT22;479;53.514;9.994;2024-03-08T11:32:38;9.30;65.80
981;DHT22;479;53.514;9.994;2024-03-08T11:35:18;9.00;70.50
981;DHT22;479;53.514;9.994;2024-03-08T11:37:46;8.70;77.70
981;DHT22;479;53.514;9.994;2024-03-08T11:40:15;8.70;77.00
981;DHT22;479;53.514;9.994;2024-03-08T11:42:44;8.30;73.10
981;DHT22;479;53.514;9.994;2024-03-08T11:45:12;8.40;75.90
981;DHT22;479;53.514;9.994;2024-03-08T11:47:41;8.20;79.40
981;DHT22;479;53.514;9.994;2024-03-08T11:50:10;8.10;86.30
981;DHT22;479;53.514;9.994;2024-03-08T11:52:39;8.10;90.50
981;DHT22;479;53.514;9.994;2024-03-08T11:55:07;8.20;90.40
981;DHT22;479;53.514;9.994;2024-03-08T11:57:35;8.20;88.50
981;DHT22;479;53.514;9.994;2024-03-08T12:00:03;8.20;88.70
981;DHT22;479;53.514;9.994;2024-03-08T12:02:34;8.20;87.90
981;DHT22;479;53.514;9.994;2024-03-08T12:05:05;8.00;88.60
981;DHT22;479;53.514;9.994;2024-03-08T12:07:35;8.10;90.80
981;DHT22;479;53.514;9.994;2024-03-08T12:10:15;8.30;92.10
981;DHT22;479;53.514;9.994;2024-03-08T12:12:43;8.50;91.80
981;DHT22;479;53.514;9.994;2024-03-08T12:15:10;8.70;90.90
981;DHT22;479;53.514;9.994;2024-03-08T12:17:38;8.60;91.00
981;DHT22;479;53.514;9.994;2024-03-08T12:20:15;8.30;90.70
981;DHT22;479;53.514;9.994;2024-03-08T12:22:42;8.30;90.70
981;DHT22;479;53.514;9.994;2024-03-08T12:25:11;8.30;91.80
981;DHT22;479;53.514;9.994;2024-03-08T12:27:39;8.30;90.80
981;DHT22;479;53.514;9.994;2024-03-08T12:30:17;8.30;88.30
981;DHT22;479;53.514;9.994;2024-03-08T12:32:48;8.40;87.10
981;DHT22;479;53.514;9.994;2024-03-08T12:35:17;8.40;84.10
981;DHT22;479;53.514;9.994;2024-03-08T12:37:44;8.10;81.60
981;DHT22;479;53.514;9.994;2024-03-08T12:40:11;8.10;84.90
981;DHT22;479;53.514;9.994;2024-03-08T12:42:42;8.00;84.50
981;DHT22;479;53.514;9.994;2024-03-08T12:45:09;8.10;86.20
981;DHT22;479;53.514;9.994;2024-03-08T12:47:36;8.20;84.10
981;DHT22;479;53.514;9.994;2024-03-08T12:50:03;8.20;85.50
981;DHT22;479;53.514;9.994;2024-03-08T12:52:32;8.10;85.40
981;DHT22;479;53.514;9.994;2024-03-08T12:55:00;8.10;87.80
981;DHT22;479;53.514;9.994;2024-03-08T12:57:33;8.10;85.30
981;DHT22;479;53.514;9.994;2024-03-08T13:00:02;7.90;87.90
981;DHT22;479;53.514;9.994;2024-03-08T13:02:29;8.10;90.50
981;DHT22;479;53.514;9.994;2024-03-08T13:04:58;8.30;90.80
981;DHT22;479;53.514;9.994;2024-03-08T13:07:25;8.30;84.80
981;DHT22;479;53.514;9.994;2024-03-08T13:09:54;8.10;83.10
981;DHT22;479;53.514;9.994;2024-03-08T13:12:22;8.30;86.50
981;DHT22;479;53.514;9.994;2024-03-08T13:14:49;8.40;86.20
981;DHT22;479;53.514;9.994;2024-03-08T13:17:17;8.50;85.70
981;DHT22;479;53.514;9.994;2024-03-08T13:19:44;8.40;82.50
981;DHT22;479;53.514;9.994;2024-03-08T13:22:11;8.30;83.60
981;DHT22;479;53.514;9.994;2024-03-08T13:24:39;8.20;84.30
981;DHT22;479;53.514;9.994;2024-03-08T13:27:09;8.20;83.70
981;DHT22;479;53.514;9.994;2024-03-08T13:29:46;8.30;84.30
981;DHT22;479;53.514;9.994;2024-03-08T13:32:14;8.30;85.40
981;DHT22;479;53.514;9.994;2024-03-08T13:34:41;8.40;84.60
981;DHT22;479;53.514;9.994;2024-03-08T13:37:09;8.40;85.30
981;DHT22;479;53.514;9.994;2024-03-08T13:39:37;8.50;85.90
981;DHT22;479;53.514;9.994;2024-03-08T13:42:11;8.50;82.50
981;DHT22;479;53.514;9.994;2024-03-08T13:44:42;8.40;79.60
981;DHT22;479;53.514;9.994;2024-03-08T13:47:10;8.50;79.30
981;DHT22;479;53.514;9.994;2024-03-08T13:49:37;8.50;78.20
981;DHT22;479;53.514;9.994;2024-03-08T13:52:05;8.70;77.40
981;DHT22;479;53.514;9.994;2024-03-08T13:54:34;8.60;75.80
981;DHT22;479;53.514;9.994;2024-03-08T13:57:01;8.60;74.40
981;DHT22;479;53.514;9.994;2024-03-08T13:59:31;8.60;74.20
981;DHT22;479;53.514;9.994;2024-03-08T14:01:59;8.60;74.20
981;DHT22;479;53.514;9.994;2024-03-08T14:04:27;8.60;72.30
981;DHT22;479;53.514;9.994;2024-03-08T14:06:54;8.60;72.00
981;DHT22;479;53.514;9.994;2024-03-08T14:09:27;8.70;72.20
981;DHT22;479;53.514;9.994;2024-03-08T14:11:54;8.70;72.70
981;DHT22;479;53.514;9.994;2024-03-08T14:14:21;8.90;75.10
981;DHT22;479;53.514;9.994;2024-03-08T14:16:51;8.90;74.40
981;DHT22;479;53.514;9.994;2024-03-08T14:19:20;8.80;73.90
981;DHT22;479;53.514;9.994;2024-03-08T14:21:47;8.80;74.70
981;DHT22;479;53.514;9.994;2024-03-08T14:24:16;8.90;76.40
981;DHT22;479;53.514;9.994;2024-03-08T14:26:44;8.90;75.90
981;DHT22;479;53.514;9.994;2024-03-08T14:29:12;8.90;76.10
981;DHT22;479;53.514;9.994;2024-03-08T14:31:39;8.90;75.60
981;DHT22;479;53.514;9.994;2024-03-08T14:34:08;8.90;75.20
981;DHT22;479;53.514;9.994;2024-03-08T14:36:36;8.90;73.90
981;DHT22;479;53.514;9.994;2024-03-08T14:39:03;8.90;74.70
981;DHT22;479;53.514;9.994;2024-03-08T14:41:30;8.90;72.40
981;DHT22;479;53.514;9.994;2024-03-08T14:43:57;8.80;71.40
981;DHT22;479;53.514;9.994;2024-03-08T14:46:25;8.80;72.70
981;DHT22;479;53.514;9.994;2024-03-08T14:48:52;8.80;72.70
981;DHT22;479;53.514;9.994;2024-03-08T14:51:21;8.80;73.40
981;DHT22;479;53.514;9.994;2024-03-08T14:53:52;8.90;71.70
981;DHT22;479;53.514;9.994;2024-03-08T14:56:20;8.90;70.00
981;DHT22;479;53.514;9.994;2024-03-08T14:58:48;8.90;68.90
981;DHT22;479;53.514;9.994;2024-03-08T15:01:17;8.90;66.40
981;DHT22;479;53.514;9.994;2024-03-08T15:03:48;8.90;64.40
981;DHT22;479;53.514;9.994;2024-03-08T15:06:15;8.80;65.70
981;DHT22;479;53.514;9.994;2024-03-08T15:08:47;8.80;65.90
981;DHT22;479;53.514;9.994;2024-03-08T15:11:14;8.70;65.10
981;DHT22;479;53.514;9.994;2024-03-08T15:13:47;8.80;66.40
981;DHT22;479;53.514;9.994;2024-03-08T15:16:17;8.80;67.60
981;DHT22;479;53.514;9.994;2024-03-08T15:18:44;8.90;68.20
981;DHT22;479;53.514;9.994;2024-03-08T15:21:13;8.80;70.50
981;DHT22;479;53.514;9.994;2024-03-08T15:23:44;8.70;69.30
981;DHT22;479;53.514;9.994;2024-03-08T15:26:16;8.70;68.50
981;DHT22;479;53.514;9.994;2024-03-08T15:28:44;8.70;68.20
981;DHT22;479;53.514;9.994;2024-03-08T15:31:13;8.70;68.80
981;DHT22;479;53.514;9.994;2024-03-08T15:33:40;8.70;69.80
981;DHT22;479;53.514;9.994;2024-03-08T15:36:10;8.70;67.20
981;DHT22;479;53.514;9.994;2024-03-08T15:38:40;8.70;65.20
981;DHT22;479;53.514;9.994;2024-03-08T15:41:07;8.70;63.80
981;DHT22;479;53.514;9.994;2024-03-08T15:43:36;8.70;64.90
981;DHT22;479;53.514;9.994;2024-03-08T15:46:05;8.70;66.90
981;DHT22;479;53.514;9.994;2024-03-08T15:48:33;8.70;66.50
981;DHT22;479;53.514;9.994;2024-03-08T15:51:01;8.70;66.60
981;DHT22;479;53.514;9.994;2024-03-08T15:53:30;8.70;65.80
981;DHT22;479;53.514;9.994;2024-03-08T15:55:57;8.60;66.50
981;DHT22;479;53.514;9.994;2024-03-08T15:58:25;8.60;68.20
981;DHT22;479;53.514;9.994;2024-03-08T16:00:53;8.70;68.30
981;DHT22;479;53.514;9.994;2024-03-08T16:03:22;8.70;66.00
981;DHT22;479;53.514;9.994;2024-03-08T16:05:49;8.60;67.10
981;DHT22;479;53.514;9.994;2024-03-08T16:08:18;8.60;67.60
981;DHT22;479;53.514;9.994;2024-03-08T16:10:48;8.60;67.30
981;DHT22;479;53.514;9.994;2024-03-08T16:13:20;8.50;68.40
981;DHT22;479;53.514;9.994;2024-03-08T16:15:48;8.50;67.50
981;DHT22;479;53.514;9.994;2024-03-08T16:18:18;8.50;68.10
981;DHT22;479;53.514;9.994;2024-03-08T16:20:47;8.50;68.30
981;DHT22;479;53.514;9.994;2024-03-08T16:23:14;8.50;67.50
981;DHT22;479;53.514;9.994;2024-03-08T16:25:41;8.50;68.00
981;DHT22;479;53.514;9.994;2024-03-08T16:28:08;8.40;68.40
981;DHT22;479;53.514;9.994;2024-03-08T16:30:36;8.40;67.70
981;DHT22;479;53.514;9.994;2024-03-08T16:33:04;8.40;67.90
981;DHT22;479;53.514;9.994;2024-03-08T16:35:33;8.40;67.50
981;DHT22;479;53.514;9.994;2024-03-08T16:38:01;8.30;67.10
981;DHT22;479;53.514;9.994;2024-03-08T16:40:27;8.30;67.50
981;DHT22;479;53.514;9.994;2024-03-08T16:42:55;8.30;68.90
981;DHT22;479;53.514;9.994;2024-03-08T16:45:23;8.20;67.70
981;DHT22;479;53.514;9.994;2024-03-08T16:47:52;8.20;67.80
981;DHT22;479;53.514;9.994;2024-03-08T16:50:19;8.20;69.60
981;DHT22;479;53.514;9.994;2024-03-08T16:52:50;8.10;67.00
981;DHT22;479;53.514;9.994;2024-03-08T16:55:17;8.10;66.10
981;DHT22;479;53.514;9.994;2024-03-08T16:57:46;8.00;66.80
981;DHT22;479;53.514;9.994;2024-03-08T17:00:16;8.00;66.00
981;DHT22;479;53.514;9.994;2024-03-08T17:02:47;8.00;65.90